ZEL weather

Bella Bella (Campbell Island) Airport
Bella Bella, British Columbia, Canada

Public forecast

Using degrees Celsius for public forecast. Weather courtesy of forecast.io.

METAR (pilot weather report)

Retrieved 2019/05/21 12:00 UTC (21 minutes ago):

CBBC 211200Z AUTO 00000KT 9SM CLR 08/07 A2983 RMK SLP102

TAF (pilot weather forecast)

Retrieved 2019/05/21 13:00 UTC (0 seconds ago):

TAF CBBC 211238Z 2113/2201 VRB03KT P6SM SCT060 TEMPO 2113/2121 BKN060 FM212100 28008KT P6SM SCT060 RMK FCST BASED ON AUTO OBS. NXT FCST BY 211900Z